sensor_id;sensor_type;location;lat;lon;timestamp;P1;durP1;ratioP1;P2;durP2;ratioP2
16543;SDS011;8384;47.996;7.786;2024-02-23T00:01:20;1.00;;;0.23;;
16543;SDS011;8384;47.996;7.786;2024-02-23T00:03:45;1.70;;;0.10;;
16543;SDS011;8384;47.996;7.786;2024-02-23T00:06:10;0.37;;;0.30;;
16543;SDS011;8384;47.996;7.786;2024-02-23T00:08:36;2.43;;;0.30;;
16543;SDS011;8384;47.996;7.786;2024-02-23T00:11:02;0.20;;;0.17;;
16543;SDS011;8384;47.996;7.786;2024-02-23T00:13:28;0.80;;;0.17;;
16543;SDS011;8384;47.996;7.786;2024-02-23T00:15:54;0.20;;;0.20;;
16543;SDS011;8384;47.996;7.786;2024-02-23T00:18:19;0.77;;;0.30;;
16543;SDS011;8384;47.996;7.786;2024-02-23T00:20:45;0.50;;;0.20;;
16543;SDS011;8384;47.996;7.786;2024-02-23T00:23:11;1.97;;;0.30;;
16543;SDS011;8384;47.996;7.786;2024-02-23T00:25:37;1.17;;;0.30;;
16543;SDS011;8384;47.996;7.786;2024-02-23T00:28:02;1.80;;;0.27;;
16543;SDS011;8384;47.996;7.786;2024-02-23T00:30:27;0.30;;;0.20;;
16543;SDS011;8384;47.996;7.786;2024-02-23T00:32:52;0.70;;;0.20;;
16543;SDS011;8384;47.996;7.786;2024-02-23T00:35:18;0.40;;;0.20;;
16543;SDS011;8384;47.996;7.786;2024-02-23T00:37:44;0.20;;;0.20;;
16543;SDS011;8384;47.996;7.786;2024-02-23T00:40:09;1.30;;;0.27;;
16543;SDS011;8384;47.996;7.786;2024-02-23T00:42:35;0.10;;;0.10;;
16543;SDS011;8384;47.996;7.786;2024-02-23T00:45:00;1.50;;;0.20;;
16543;SDS011;8384;47.996;7.786;2024-02-23T00:47:26;0.80;;;0.10;;
16543;SDS011;8384;47.996;7.786;2024-02-23T00:49:52;0.57;;;0.20;;
16543;SDS011;8384;47.996;7.786;2024-02-23T00:52:17;0.37;;;0.13;;
16543;SDS011;8384;47.996;7.786;2024-02-23T00:54:42;0.77;;;0.30;;
16543;SDS011;8384;47.996;7.786;2024-02-23T00:57:08;0.20;;;0.13;;
16543;SDS011;8384;47.996;7.786;2024-02-23T00:59:33;0.53;;;0.23;;
16543;SDS011;8384;47.996;7.786;2024-02-23T01:01:58;0.90;;;0.40;;
16543;SDS011;8384;47.996;7.786;2024-02-23T01:04:23;1.67;;;0.53;;
16543;SDS011;8384;47.996;7.786;2024-02-23T01:06:49;0.10;;;0.10;;
16543;SDS011;8384;47.996;7.786;2024-02-23T01:09:14;2.57;;;0.33;;
16543;SDS011;8384;47.996;7.786;2024-02-23T01:11:41;1.00;;;0.30;;
16543;SDS011;8384;47.996;7.786;2024-02-23T01:14:07;1.33;;;0.40;;
16543;SDS011;8384;47.996;7.786;2024-02-23T01:16:32;1.70;;;0.70;;
16543;SDS011;8384;47.996;7.786;2024-02-23T01:18:57;0.20;;;0.20;;
16543;SDS011;8384;47.996;7.786;2024-02-23T01:21:22;1.40;;;0.40;;
16543;SDS011;8384;47.996;7.786;2024-02-23T01:23:48;1.80;;;0.43;;
16543;SDS011;8384;47.996;7.786;2024-02-23T01:26:13;1.07;;;0.50;;
16543;SDS011;8384;47.996;7.786;2024-02-23T01:28:38;1.07;;;0.40;;
16543;SDS011;8384;47.996;7.786;2024-02-23T01:31:03;1.27;;;0.50;;
16543;SDS011;8384;47.996;7.786;2024-02-23T01:33:29;3.23;;;0.73;;
16543;SDS011;8384;47.996;7.786;2024-02-23T01:35:54;1.33;;;0.40;;
16543;SDS011;8384;47.996;7.786;2024-02-23T01:38:21;0.83;;;0.20;;
16543;SDS011;8384;47.996;7.786;2024-02-23T01:40:47;1.90;;;0.43;;
16543;SDS011;8384;47.996;7.786;2024-02-23T01:43:12;1.40;;;0.47;;
16543;SDS011;8384;47.996;7.786;2024-02-23T01:45:38;1.47;;;0.40;;
16543;SDS011;8384;47.996;7.786;2024-02-23T01:48:03;1.83;;;0.40;;
16543;SDS011;8384;47.996;7.786;2024-02-23T01:50:29;1.20;;;0.37;;
16543;SDS011;8384;47.996;7.786;2024-02-23T01:52:56;1.20;;;0.40;;
16543;SDS011;8384;47.996;7.786;2024-02-23T01:55:23;2.00;;;0.30;;
16543;SDS011;8384;47.996;7.786;2024-02-23T01:57:48;2.20;;;0.43;;
16543;SDS011;8384;47.996;7.786;2024-02-23T02:00:15;3.20;;;0.57;;
16543;SDS011;8384;47.996;7.786;2024-02-23T02:02:42;1.63;;;0.43;;
16543;SDS011;8384;47.996;7.786;2024-02-23T02:05:08;1.53;;;0.30;;
16543;SDS011;8384;47.996;7.786;2024-02-23T02:07:33;1.87;;;0.90;;
16543;SDS011;8384;47.996;7.786;2024-02-23T02:09:59;2.23;;;0.50;;
16543;SDS011;8384;47.996;7.786;2024-02-23T02:12:28;1.67;;;0.33;;
16543;SDS011;8384;47.996;7.786;2024-02-23T02:14:53;1.67;;;0.50;;
16543;SDS011;8384;47.996;7.786;2024-02-23T02:17:19;1.87;;;0.60;;
16543;SDS011;8384;47.996;7.786;2024-02-23T02:19:47;1.77;;;0.43;;
16543;SDS011;8384;47.996;7.786;2024-02-23T02:22:13;1.63;;;0.30;;
16543;SDS011;8384;47.996;7.786;2024-02-23T02:24:38;1.73;;;0.50;;
16543;SDS011;8384;47.996;7.786;2024-02-23T02:27:05;2.73;;;0.47;;
16543;SDS011;8384;47.996;7.786;2024-02-23T02:29:31;1.70;;;0.40;;
16543;SDS011;8384;47.996;7.786;2024-02-23T02:31:57;1.30;;;0.40;;
16543;SDS011;8384;47.996;7.786;2024-02-23T02:34:22;0.53;;;0.27;;
16543;SDS011;8384;47.996;7.786;2024-02-23T02:36:47;1.30;;;0.40;;
16543;SDS011;8384;47.996;7.786;2024-02-23T02:39:12;1.63;;;0.40;;
16543;SDS011;8384;47.996;7.786;2024-02-23T02:41:38;1.30;;;0.27;;
16543;SDS011;8384;47.996;7.786;2024-02-23T02:44:03;2.20;;;0.50;;
16543;SDS011;8384;47.996;7.786;2024-02-23T02:46:28;2.13;;;0.40;;
16543;SDS011;8384;47.996;7.786;2024-02-23T02:48:54;2.03;;;0.50;;
16543;SDS011;8384;47.996;7.786;2024-02-23T02:51:19;1.03;;;0.50;;
16543;SDS011;8384;47.996;7.786;2024-02-23T02:53:44;1.93;;;0.53;;
16543;SDS011;8384;47.996;7.786;2024-02-23T02:56:09;1.53;;;0.80;;
16543;SDS011;8384;47.996;7.786;2024-02-23T02:58:35;1.13;;;0.50;;
16543;SDS011;8384;47.996;7.786;2024-02-23T03:01:00;0.83;;;0.60;;
16543;SDS011;8384;47.996;7.786;2024-02-23T03:03:25;0.80;;;0.53;;
16543;SDS011;8384;47.996;7.786;2024-02-23T03:05:50;1.50;;;0.40;;
16543;SDS011;8384;47.996;7.786;2024-02-23T03:08:16;0.90;;;0.60;;
16543;SDS011;8384;47.996;7.786;2024-02-23T03:10:41;2.30;;;0.43;;
16543;SDS011;8384;47.996;7.786;2024-02-23T03:13:06;2.43;;;0.80;;
16543;SDS011;8384;47.996;7.786;2024-02-23T03:15:31;2.87;;;0.60;;
16543;SDS011;8384;47.996;7.786;2024-02-23T03:17:57;1.27;;;0.70;;
16543;SDS011;8384;47.996;7.786;2024-02-23T03:20:22;1.83;;;0.63;;
16543;SDS011;8384;47.996;7.786;2024-02-23T03:22:47;0.87;;;0.40;;
16543;SDS011;8384;47.996;7.786;2024-02-23T03:25:12;2.13;;;0.67;;
16543;SDS011;8384;47.996;7.786;2024-02-23T03:27:38;1.27;;;0.57;;
16543;SDS011;8384;47.996;7.786;2024-02-23T03:30:03;1.73;;;0.50;;
16543;SDS011;8384;47.996;7.786;2024-02-23T03:32:30;1.77;;;0.60;;
16543;SDS011;8384;47.996;7.786;2024-02-23T03:35:01;1.50;;;0.50;;
16543;SDS011;8384;47.996;7.786;2024-02-23T03:37:26;1.50;;;0.57;;
16543;SDS011;8384;47.996;7.786;2024-02-23T03:39:51;1.73;;;0.50;;
16543;SDS011;8384;47.996;7.786;2024-02-23T03:42:17;1.80;;;0.57;;
16543;SDS011;8384;47.996;7.786;2024-02-23T03:44:42;1.10;;;0.50;;
16543;SDS011;8384;47.996;7.786;2024-02-23T03:47:07;3.77;;;0.67;;
16543;SDS011;8384;47.996;7.786;2024-02-23T03:49:33;2.70;;;0.50;;
16543;SDS011;8384;47.996;7.786;2024-02-23T03:51:58;1.07;;;0.50;;
16543;SDS011;8384;47.996;7.786;2024-02-23T03:54:23;1.87;;;0.70;;
16543;SDS011;8384;47.996;7.786;2024-02-23T03:56:49;0.33;;;0.30;;
16543;SDS011;8384;47.996;7.786;2024-02-23T03:59:14;1.60;;;0.50;;
16543;SDS011;8384;47.996;7.786;2024-02-23T04:01:39;3.70;;;0.70;;
16543;SDS011;8384;47.996;7.786;2024-02-23T04:04:04;2.33;;;0.43;;
16543;SDS011;8384;47.996;7.786;2024-02-23T04:06:30;1.50;;;0.40;;
16543;SDS011;8384;47.996;7.786;2024-02-23T04:08:56;1.47;;;0.60;;
16543;SDS011;8384;47.996;7.786;2024-02-23T04:11:21;2.50;;;0.60;;
16543;SDS011;8384;47.996;7.786;2024-02-23T04:13:47;1.20;;;0.40;;
16543;SDS011;8384;47.996;7.786;2024-02-23T04:16:12;1.93;;;0.80;;
16543;SDS011;8384;47.996;7.786;2024-02-23T04:18:37;2.43;;;0.73;;
16543;SDS011;8384;47.996;7.786;2024-02-23T04:21:02;5.00;;;0.70;;
16543;SDS011;8384;47.996;7.786;2024-02-23T04:23:28;1.43;;;0.57;;
16543;SDS011;8384;47.996;7.786;2024-02-23T04:25:53;4.13;;;0.60;;
16543;SDS011;8384;47.996;7.786;2024-02-23T04:28:19;1.90;;;0.53;;
16543;SDS011;8384;47.996;7.786;2024-02-23T04:30:45;1.50;;;0.50;;
16543;SDS011;8384;47.996;7.786;2024-02-23T04:33:10;5.13;;;0.70;;
16543;SDS011;8384;47.996;7.786;2024-02-23T04:35:36;3.00;;;0.57;;
16543;SDS011;8384;47.996;7.786;2024-02-23T04:38:01;5.20;;;0.57;;
16543;SDS011;8384;47.996;7.786;2024-02-23T04:40:27;2.77;;;0.73;;
16543;SDS011;8384;47.996;7.786;2024-02-23T04:42:52;3.37;;;0.80;;
16543;SDS011;8384;47.996;7.786;2024-02-23T04:45:18;2.40;;;0.50;;
16543;SDS011;8384;47.996;7.786;2024-02-23T04:47:43;4.70;;;0.70;;
16543;SDS011;8384;47.996;7.786;2024-02-23T04:50:09;2.27;;;0.50;;
16543;SDS011;8384;47.996;7.786;2024-02-23T04:52:35;3.07;;;0.67;;
16543;SDS011;8384;47.996;7.786;2024-02-23T04:55:00;1.83;;;0.63;;
16543;SDS011;8384;47.996;7.786;2024-02-23T04:57:26;1.60;;;0.40;;
16543;SDS011;8384;47.996;7.786;2024-02-23T04:59:51;3.50;;;0.70;;
16543;SDS011;8384;47.996;7.786;2024-02-23T05:02:17;2.80;;;0.67;;
16543;SDS011;8384;47.996;7.786;2024-02-23T05:04:42;5.17;;;0.93;;
16543;SDS011;8384;47.996;7.786;2024-02-23T05:07:07;2.63;;;0.80;;
16543;SDS011;8384;47.996;7.786;2024-02-23T05:09:32;1.03;;;0.50;;
16543;SDS011;8384;47.996;7.786;2024-02-23T05:12:00;2.77;;;0.70;;
16543;SDS011;8384;47.996;7.786;2024-02-23T05:14:25;4.97;;;0.90;;
16543;SDS011;8384;47.996;7.786;2024-02-23T05:16:51;4.70;;;0.80;;
16543;SDS011;8384;47.996;7.786;2024-02-23T05:19:17;2.37;;;0.63;;
16543;SDS011;8384;47.996;7.786;2024-02-23T05:21:42;2.67;;;0.70;;
16543;SDS011;8384;47.996;7.786;2024-02-23T05:24:07;4.03;;;0.90;;
16543;SDS011;8384;47.996;7.786;2024-02-23T05:26:32;4.23;;;0.70;;
16543;SDS011;8384;47.996;7.786;2024-02-23T05:28:58;2.83;;;0.77;;
16543;SDS011;8384;47.996;7.786;2024-02-23T05:31:43;4.03;;;0.67;;
16543;SDS011;8384;47.996;7.786;2024-02-23T05:34:14;5.70;;;0.60;;
16543;SDS011;8384;47.996;7.786;2024-02-23T05:36:39;3.90;;;0.83;;
16543;SDS011;8384;47.996;7.786;2024-02-23T05:39:05;2.73;;;0.70;;
16543;SDS011;8384;47.996;7.786;2024-02-23T05:41:32;3.70;;;0.67;;
16543;SDS011;8384;47.996;7.786;2024-02-23T05:43:57;6.43;;;0.87;;
16543;SDS011;8384;47.996;7.786;2024-02-23T05:46:22;3.77;;;0.87;;
16543;SDS011;8384;47.996;7.786;2024-02-23T05:48:48;6.63;;;0.80;;
16543;SDS011;8384;47.996;7.786;2024-02-23T05:51:13;1.50;;;0.57;;
16543;SDS011;8384;47.996;7.786;2024-02-23T05:53:38;2.50;;;0.70;;
16543;SDS011;8384;47.996;7.786;2024-02-23T05:56:05;4.17;;;0.80;;
16543;SDS011;8384;47.996;7.786;2024-02-23T05:58:31;2.43;;;0.53;;
16543;SDS011;8384;47.996;7.786;2024-02-23T06:00:56;5.27;;;0.60;;
16543;SDS011;8384;47.996;7.786;2024-02-23T06:03:21;4.30;;;0.70;;
16543;SDS011;8384;47.996;7.786;2024-02-23T06:05:46;1.23;;;0.60;;
16543;SDS011;8384;47.996;7.786;2024-02-23T06:08:12;5.30;;;0.80;;
16543;SDS011;8384;47.996;7.786;2024-02-23T06:10:37;4.30;;;0.57;;
16543;SDS011;8384;47.996;7.786;2024-02-23T06:13:06;4.07;;;0.90;;
16543;SDS011;8384;47.996;7.786;2024-02-23T06:15:32;3.67;;;0.70;;
16543;SDS011;8384;47.996;7.786;2024-02-23T06:18:04;6.27;;;0.60;;
16543;SDS011;8384;47.996;7.786;2024-02-23T06:20:35;3.50;;;1.00;;
16543;SDS011;8384;47.996;7.786;2024-02-23T06:23:08;3.40;;;1.20;;
16543;SDS011;8384;47.996;7.786;2024-02-23T06:25:34;3.70;;;0.77;;
16543;SDS011;8384;47.996;7.786;2024-02-23T06:28:10;1.57;;;0.53;;
16543;SDS011;8384;47.996;7.786;2024-02-23T06:30:36;3.57;;;0.73;;
16543;SDS011;8384;47.996;7.786;2024-02-23T06:33:04;6.13;;;1.17;;
16543;SDS011;8384;47.996;7.786;2024-02-23T06:35:30;4.10;;;1.20;;
16543;SDS011;8384;47.996;7.786;2024-02-23T06:37:59;3.70;;;1.43;;
16543;SDS011;8384;47.996;7.786;2024-02-23T06:40:31;2.93;;;0.60;;
16543;SDS011;8384;47.996;7.786;2024-02-23T06:42:56;3.57;;;0.90;;
16543;SDS011;8384;47.996;7.786;2024-02-23T06:45:30;4.47;;;1.30;;
16543;SDS011;8384;47.996;7.786;2024-02-23T06:48:01;7.13;;;1.17;;
16543;SDS011;8384;47.996;7.786;2024-02-23T06:50:35;3.60;;;0.70;;
16543;SDS011;8384;47.996;7.786;2024-02-23T06:53:01;3.67;;;1.10;;
16543;SDS011;8384;47.996;7.786;2024-02-23T06:55:27;7.83;;;1.73;;
16543;SDS011;8384;47.996;7.786;2024-02-23T06:57:55;3.13;;;0.93;;
16543;SDS011;8384;47.996;7.786;2024-02-23T07:00:21;6.50;;;1.57;;
16543;SDS011;8384;47.996;7.786;2024-02-23T07:02:52;4.47;;;0.87;;
16543;SDS011;8384;47.996;7.786;2024-02-23T07:05:20;6.60;;;0.97;;
16543;SDS011;8384;47.996;7.786;2024-02-23T07:07:48;7.07;;;0.87;;
16543;SDS011;8384;47.996;7.786;2024-02-23T07:10:14;4.10;;;1.00;;
16543;SDS011;8384;47.996;7.786;2024-02-23T07:12:39;5.13;;;1.20;;
16543;SDS011;8384;47.996;7.786;2024-02-23T07:15:05;3.67;;;1.10;;
16543;SDS011;8384;47.996;7.786;2024-02-23T07:17:30;2.87;;;1.20;;
16543;SDS011;8384;47.996;7.786;2024-02-23T07:19:58;3.50;;;0.67;;
16543;SDS011;8384;47.996;7.786;2024-02-23T07:22:33;6.17;;;1.00;;
16543;SDS011;8384;47.996;7.786;2024-02-23T07:25:07;3.63;;;1.00;;
16543;SDS011;8384;47.996;7.786;2024-02-23T07:27:33;4.77;;;1.00;;
16543;SDS011;8384;47.996;7.786;2024-02-23T07:30:08;3.83;;;1.03;;
16543;SDS011;8384;47.996;7.786;2024-02-23T07:32:44;4.10;;;0.90;;
16543;SDS011;8384;47.996;7.786;2024-02-23T07:35:11;6.03;;;1.30;;
16543;SDS011;8384;47.996;7.786;2024-02-23T07:37:40;7.60;;;1.23;;
16543;SDS011;8384;47.996;7.786;2024-02-23T07:40:05;7.57;;;1.03;;
16543;SDS011;8384;47.996;7.786;2024-02-23T07:42:31;4.30;;;0.97;;
16543;SDS011;8384;47.996;7.786;2024-02-23T07:44:57;4.40;;;1.10;;
16543;SDS011;8384;47.996;7.786;2024-02-23T07:47:22;4.57;;;1.07;;
16543;SDS011;8384;47.996;7.786;2024-02-23T07:49:48;6.53;;;1.33;;
16543;SDS011;8384;47.996;7.786;2024-02-23T07:52:14;4.73;;;1.20;;
16543;SDS011;8384;47.996;7.786;2024-02-23T07:54:39;6.83;;;1.87;;
16543;SDS011;8384;47.996;7.786;2024-02-23T07:57:04;4.90;;;1.20;;
16543;SDS011;8384;47.996;7.786;2024-02-23T07:59:33;3.73;;;0.93;;
16543;SDS011;8384;47.996;7.786;2024-02-23T08:01:58;8.57;;;1.30;;
16543;SDS011;8384;47.996;7.786;2024-02-23T08:04:24;3.87;;;0.93;;
16543;SDS011;8384;47.996;7.786;2024-02-23T08:06:52;3.47;;;1.00;;
16543;SDS011;8384;47.996;7.786;2024-02-23T08:09:17;6.03;;;1.13;;
16543;SDS011;8384;47.996;7.786;2024-02-23T08:11:47;5.67;;;1.30;;
16543;SDS011;8384;47.996;7.786;2024-02-23T08:14:23;5.40;;;1.20;;
16543;SDS011;8384;47.996;7.786;2024-02-23T08:16:55;2.97;;;0.90;;
16543;SDS011;8384;47.996;7.786;2024-02-23T08:19:20;5.97;;;1.33;;
16543;SDS011;8384;47.996;7.786;2024-02-23T08:21:45;2.97;;;1.10;;
16543;SDS011;8384;47.996;7.786;2024-02-23T08:24:19;4.77;;;1.30;;
16543;SDS011;8384;47.996;7.786;2024-02-23T08:26:45;4.60;;;1.30;;
16543;SDS011;8384;47.996;7.786;2024-02-23T08:29:12;5.90;;;1.77;;
16543;SDS011;8384;47.996;7.786;2024-02-23T08:31:40;6.23;;;1.40;;
16543;SDS011;8384;47.996;7.786;2024-02-23T08:34:08;5.00;;;1.17;;
16543;SDS011;8384;47.996;7.786;2024-02-23T08:36:33;4.83;;;1.20;;
16543;SDS011;8384;47.996;7.786;2024-02-23T08:39:01;4.67;;;1.20;;
16543;SDS011;8384;47.996;7.786;2024-02-23T08:41:31;6.23;;;1.40;;
16543;SDS011;8384;47.996;7.786;2024-02-23T08:43:58;4.23;;;0.93;;
16543;SDS011;8384;47.996;7.786;2024-02-23T08:46:27;5.87;;;1.07;;
16543;SDS011;8384;47.996;7.786;2024-02-23T08:48:52;9.03;;;1.50;;
16543;SDS011;8384;47.996;7.786;2024-02-23T08:51:20;4.27;;;1.30;;
16543;SDS011;8384;47.996;7.786;2024-02-23T08:53:48;4.20;;;1.40;;
16543;SDS011;8384;47.996;7.786;2024-02-23T08:56:16;4.00;;;0.90;;
16543;SDS011;8384;47.996;7.786;2024-02-23T08:58:43;5.37;;;1.43;;
16543;SDS011;8384;47.996;7.786;2024-02-23T09:01:09;4.57;;;1.20;;
16543;SDS011;8384;47.996;7.786;2024-02-23T09:03:34;8.37;;;1.50;;
16543;SDS011;8384;47.996;7.786;2024-02-23T09:06:00;5.70;;;1.20;;
16543;SDS011;8384;47.996;7.786;2024-02-23T09:08:27;7.03;;;1.47;;
16543;SDS011;8384;47.996;7.786;2024-02-23T09:10:53;5.53;;;1.10;;
16543;SDS011;8384;47.996;7.786;2024-02-23T09:13:18;4.37;;;1.13;;
16543;SDS011;8384;47.996;7.786;2024-02-23T09:15:43;7.30;;;1.57;;
16543;SDS011;8384;47.996;7.786;2024-02-23T09:18:08;3.70;;;1.13;;
16543;SDS011;8384;47.996;7.786;2024-02-23T09:20:34;6.67;;;1.13;;
16543;SDS011;8384;47.996;7.786;2024-02-23T09:23:02;4.03;;;1.00;;
16543;SDS011;8384;47.996;7.786;2024-02-23T09:25:28;3.57;;;1.00;;
16543;SDS011;8384;47.996;7.786;2024-02-23T09:27:56;4.10;;;1.10;;
16543;SDS011;8384;47.996;7.786;2024-02-23T09:30:21;4.20;;;1.10;;
16543;SDS011;8384;47.996;7.786;2024-02-23T09:32:47;5.53;;;1.27;;
16543;SDS011;8384;47.996;7.786;2024-02-23T09:35:12;5.80;;;1.20;;
16543;SDS011;8384;47.996;7.786;2024-02-23T09:37:37;6.27;;;1.53;;
16543;SDS011;8384;47.996;7.786;2024-02-23T09:40:03;5.40;;;1.30;;
16543;SDS011;8384;47.996;7.786;2024-02-23T09:42:28;8.60;;;1.37;;
16543;SDS011;8384;47.996;7.786;2024-02-23T09:45:00;4.77;;;1.13;;
16543;SDS011;8384;47.996;7.786;2024-02-23T09:47:29;4.33;;;1.20;;
16543;SDS011;8384;47.996;7.786;2024-02-23T09:49:57;7.70;;;1.53;;
16543;SDS011;8384;47.996;7.786;2024-02-23T09:52:31;4.00;;;1.13;;
16543;SDS011;8384;47.996;7.786;2024-02-23T09:54:57;5.23;;;1.00;;
16543;SDS011;8384;47.996;7.786;2024-02-23T09:57:22;5.03;;;1.33;;
16543;SDS011;8384;47.996;7.786;2024-02-23T09:59:48;5.10;;;1.17;;
16543;SDS011;8384;47.996;7.786;2024-02-23T10:02:15;7.20;;;1.77;;
16543;SDS011;8384;47.996;7.786;2024-02-23T10:04:42;5.07;;;1.50;;
16543;SDS011;8384;47.996;7.786;2024-02-23T10:07:09;5.40;;;1.10;;
16543;SDS011;8384;47.996;7.786;2024-02-23T10:09:35;3.77;;;1.30;;
16543;SDS011;8384;47.996;7.786;2024-02-23T10:12:01;4.87;;;1.20;;
16543;SDS011;8384;47.996;7.786;2024-02-23T10:14:27;4.53;;;1.23;;
16543;SDS011;8384;47.996;7.786;2024-02-23T10:16:52;4.83;;;1.03;;
16543;SDS011;8384;47.996;7.786;2024-02-23T10:19:21;5.00;;;1.40;;
16543;SDS011;8384;47.996;7.786;2024-02-23T10:21:47;5.60;;;1.30;;
16543;SDS011;8384;47.996;7.786;2024-02-23T10:24:13;5.87;;;1.47;;
16543;SDS011;8384;47.996;7.786;2024-02-23T10:26:48;4.43;;;1.17;;
16543;SDS011;8384;47.996;7.786;2024-02-23T10:29:13;4.03;;;1.20;;
16543;SDS011;8384;47.996;7.786;2024-02-23T10:31:39;3.67;;;1.10;;
16543;SDS011;8384;47.996;7.786;2024-02-23T10:34:07;4.27;;;1.20;;
16543;SDS011;8384;47.996;7.786;2024-02-23T10:36:42;7.23;;;1.30;;
16543;SDS011;8384;47.996;7.786;2024-02-23T10:39:08;6.30;;;1.17;;
16543;SDS011;8384;47.996;7.786;2024-02-23T10:41:37;2.80;;;1.17;;
16543;SDS011;8384;47.996;7.786;2024-02-23T10:44:04;4.80;;;1.17;;
16543;SDS011;8384;47.996;7.786;2024-02-23T10:46:31;2.97;;;0.87;;
16543;SDS011;8384;47.996;7.786;2024-02-23T10:48:57;5.17;;;1.20;;
16543;SDS011;8384;47.996;7.786;2024-02-23T10:51:24;2.87;;;1.20;;
16543;SDS011;8384;47.996;7.786;2024-02-23T10:53:49;5.87;;;1.20;;
16543;SDS011;8384;47.996;7.786;2024-02-23T10:56:17;6.23;;;1.33;;
16543;SDS011;8384;47.996;7.786;2024-02-23T10:58:42;3.07;;;1.10;;
16543;SDS011;8384;47.996;7.786;2024-02-23T11:01:07;3.43;;;1.20;;
16543;SDS011;8384;47.996;7.786;2024-02-23T11:03:34;4.80;;;1.00;;
16543;SDS011;8384;47.996;7.786;2024-02-23T11:06:02;3.40;;;1.00;;
16543;SDS011;8384;47.996;7.786;2024-02-23T11:08:28;5.30;;;1.00;;
16543;SDS011;8384;47.996;7.786;2024-02-23T11:10:54;3.60;;;0.97;;
16543;SDS011;8384;47.996;7.786;2024-02-23T11:13:29;4.77;;;1.20;;
16543;SDS011;8384;47.996;7.786;2024-02-23T11:16:04;3.53;;;1.10;;
16543;SDS011;8384;47.996;7.786;2024-02-23T11:18:31;3.93;;;1.10;;
16543;SDS011;8384;47.996;7.786;2024-02-23T11:21:00;6.80;;;1.50;;
16543;SDS011;8384;47.996;7.786;2024-02-23T11:23:38;4.80;;;1.20;;
16543;SDS011;8384;47.996;7.786;2024-02-23T11:26:11;5.63;;;1.37;;
16543;SDS011;8384;47.996;7.786;2024-02-23T11:28:49;5.43;;;1.33;;
16543;SDS011;8384;47.996;7.786;2024-02-23T11:31:19;4.13;;;1.30;;
16543;SDS011;8384;47.996;7.786;2024-02-23T11:33:49;6.60;;;1.37;;
16543;SDS011;8384;47.996;7.786;2024-02-23T11:36:22;4.67;;;1.33;;
16543;SDS011;8384;47.996;7.786;2024-02-23T11:38:47;3.03;;;1.07;;
16543;SDS011;8384;47.996;7.786;2024-02-23T11:41:12;4.73;;;1.00;;
16543;SDS011;8384;47.996;7.786;2024-02-23T11:43:38;3.07;;;1.00;;
16543;SDS011;8384;47.996;7.786;2024-02-23T11:46:04;4.07;;;0.90;;
16543;SDS011;8384;47.996;7.786;2024-02-23T11:48:30;6.63;;;1.30;;
16543;SDS011;8384;47.996;7.786;2024-02-23T11:50:55;6.40;;;1.30;;
16543;SDS011;8384;47.996;7.786;2024-02-23T11:53:21;5.10;;;1.20;;
16543;SDS011;8384;47.996;7.786;2024-02-23T11:55:47;3.87;;;1.20;;
16543;SDS011;8384;47.996;7.786;2024-02-23T11:58:13;4.13;;;1.20;;
16543;SDS011;8384;47.996;7.786;2024-02-23T12:00:40;3.67;;;1.33;;
16543;SDS011;8384;47.996;7.786;2024-02-23T12:03:05;4.37;;;0.90;;
16543;SDS011;8384;47.996;7.786;2024-02-23T12:05:30;2.13;;;1.00;;
16543;SDS011;8384;47.996;7.786;2024-02-23T12:07:56;3.67;;;1.10;;
16543;SDS011;8384;47.996;7.786;2024-02-23T12:10:23;2.33;;;1.00;;
16543;SDS011;8384;47.996;7.786;2024-02-23T12:12:50;4.53;;;0.97;;
16543;SDS011;8384;47.996;7.786;2024-02-23T12:15:15;3.97;;;1.03;;
16543;SDS011;8384;47.996;7.786;2024-02-23T12:17:47;3.23;;;0.83;;
16543;SDS011;8384;47.996;7.786;2024-02-23T12:20:13;5.13;;;1.50;;
16543;SDS011;8384;47.996;7.786;2024-02-23T12:22:40;4.90;;;1.40;;
16543;SDS011;8384;47.996;7.786;2024-02-23T12:25:06;6.77;;;1.13;;
16543;SDS011;8384;47.996;7.786;2024-02-23T12:27:31;4.70;;;1.50;;
16543;SDS011;8384;47.996;7.786;2024-02-23T12:29:57;6.63;;;1.10;;
16543;SDS011;8384;47.996;7.786;2024-02-23T12:32:22;3.47;;;0.90;;
16543;SDS011;8384;47.996;7.786;2024-02-23T12:34:48;3.83;;;1.10;;
16543;SDS011;8384;47.996;7.786;2024-02-23T12:37:16;3.20;;;1.13;;
16543;SDS011;8384;47.996;7.786;2024-02-23T12:39:43;3.23;;;1.07;;
16543;SDS011;8384;47.996;7.786;2024-02-23T12:42:09;2.63;;;0.80;;
16543;SDS011;8384;47.996;7.786;2024-02-23T12:44:34;2.07;;;0.77;;
16543;SDS011;8384;47.996;7.786;2024-02-23T12:47:00;3.07;;;1.17;;
16543;SDS011;8384;47.996;7.786;2024-02-23T12:49:25;3.60;;;1.03;;
16543;SDS011;8384;47.996;7.786;2024-02-23T12:51:50;6.17;;;1.53;;
16543;SDS011;8384;47.996;7.786;2024-02-23T12:54:19;4.10;;;1.10;;
16543;SDS011;8384;47.996;7.786;2024-02-23T12:56:44;3.90;;;1.03;;
16543;SDS011;8384;47.996;7.786;2024-02-23T12:59:09;3.50;;;1.00;;
16543;SDS011;8384;47.996;7.786;2024-02-23T13:01:35;3.50;;;0.93;;
16543;SDS011;8384;47.996;7.786;2024-02-23T13:04:02;4.03;;;1.10;;
16543;SDS011;8384;47.996;7.786;2024-02-23T13:06:28;3.67;;;0.90;;
16543;SDS011;8384;47.996;7.786;2024-02-23T13:08:54;2.97;;;0.73;;
16543;SDS011;8384;47.996;7.786;2024-02-23T13:11:19;1.70;;;0.73;;
16543;SDS011;8384;47.996;7.786;2024-02-23T13:13:45;4.37;;;1.03;;
16543;SDS011;8384;47.996;7.786;2024-02-23T13:16:10;3.37;;;0.90;;
16543;SDS011;8384;47.996;7.786;2024-02-23T13:18:35;3.97;;;0.90;;
16543;SDS011;8384;47.996;7.786;2024-02-23T13:21:01;2.90;;;1.10;;
16543;SDS011;8384;47.996;7.786;2024-02-23T13:23:28;2.50;;;0.80;;
16543;SDS011;8384;47.996;7.786;2024-02-23T13:25:53;4.13;;;0.93;;
16543;SDS011;8384;47.996;7.786;2024-02-23T13:28:22;2.17;;;0.90;;
16543;SDS011;8384;47.996;7.786;2024-02-23T13:30:47;3.73;;;1.10;;
16543;SDS011;8384;47.996;7.786;2024-02-23T13:33:12;4.00;;;0.90;;
16543;SDS011;8384;47.996;7.786;2024-02-23T13:35:38;4.40;;;0.93;;
16543;SDS011;8384;47.996;7.786;2024-02-23T13:38:04;1.10;;;0.63;;
16543;SDS011;8384;47.996;7.786;2024-02-23T13:40:29;3.70;;;1.00;;
16543;SDS011;8384;47.996;7.786;2024-02-23T13:42:56;4.10;;;1.00;;
16543;SDS011;8384;47.996;7.786;2024-02-23T13:45:21;4.57;;;1.10;;
16543;SDS011;8384;47.996;7.786;2024-02-23T13:47:58;2.50;;;1.17;;
16543;SDS011;8384;47.996;7.786;2024-02-23T13:50:24;2.20;;;0.97;;
16543;SDS011;8384;47.996;7.786;2024-02-23T13:52:50;3.70;;;0.73;;
16543;SDS011;8384;47.996;7.786;2024-02-23T13:55:16;2.30;;;0.70;;
16543;SDS011;8384;47.996;7.786;2024-02-23T13:57:41;6.33;;;1.13;;
16543;SDS011;8384;47.996;7.786;2024-02-23T14:00:06;4.30;;;0.80;;
16543;SDS011;8384;47.996;7.786;2024-02-23T14:02:37;3.50;;;0.93;;
16543;SDS011;8384;47.996;7.786;2024-02-23T14:05:05;4.67;;;1.30;;
16543;SDS011;8384;47.996;7.786;2024-02-23T14:07:31;4.20;;;0.83;;
16543;SDS011;8384;47.996;7.786;2024-02-23T14:09:59;3.80;;;1.13;;
16543;SDS011;8384;47.996;7.786;2024-02-23T14:12:28;2.67;;;0.80;;
16543;SDS011;8384;47.996;7.786;2024-02-23T14:14:54;3.03;;;0.87;;
16543;SDS011;8384;47.996;7.786;2024-02-23T14:17:20;3.53;;;0.90;;
16543;SDS011;8384;47.996;7.786;2024-02-23T14:19:45;2.00;;;0.80;;
16543;SDS011;8384;47.996;7.786;2024-02-23T14:22:11;3.97;;;1.00;;
16543;SDS011;8384;47.996;7.786;2024-02-23T14:24:36;1.77;;;0.70;;
16543;SDS011;8384;47.996;7.786;2024-02-23T14:27:01;4.37;;;0.80;;
16543;SDS011;8384;47.996;7.786;2024-02-23T14:29:27;4.20;;;0.90;;
16543;SDS011;8384;47.996;7.786;2024-02-23T14:31:54;2.27;;;0.87;;
16543;SDS011;8384;47.996;7.786;2024-02-23T14:34:20;2.57;;;0.90;;
16543;SDS011;8384;47.996;7.786;2024-02-23T14:36:48;2.30;;;1.10;;
16543;SDS011;8384;47.996;7.786;2024-02-23T14:39:14;2.13;;;0.90;;
16543;SDS011;8384;47.996;7.786;2024-02-23T14:41:39;4.00;;;0.80;;
16543;SDS011;8384;47.996;7.786;2024-02-23T14:44:04;2.83;;;0.87;;
16543;SDS011;8384;47.996;7.786;2024-02-23T14:46:30;2.50;;;0.60;;
16543;SDS011;8384;47.996;7.786;2024-02-23T14:48:55;1.57;;;0.73;;
16543;SDS011;8384;47.996;7.786;2024-02-23T14:51:20;1.40;;;0.80;;
16543;SDS011;8384;47.996;7.786;2024-02-23T14:53:45;2.77;;;0.97;;
16543;SDS011;8384;47.996;7.786;2024-02-23T14:56:11;2.30;;;0.80;;